sensor_id;sensor_type;location;lat;lon;timestamp;pressure;altitude;pressure_sealevel;temperature;humidity
30021;BME280;16861;52.294;7.760;2023-03-30T00:00:36;98928.34;;;13.26;73.67
30021;BME280;16861;52.294;7.760;2023-03-30T00:03:03;98925.72;;;13.26;73.54
30021;BME280;16861;52.294;7.760;2023-03-30T00:05:30;98927.25;;;13.29;73.46
30021;BME280;16861;52.294;7.760;2023-03-30T00:07:56;98925.47;;;13.29;73.59
30021;BME280;16861;52.294;7.760;2023-03-30T00:10:22;98922.94;;;13.28;73.63
30021;BME280;16861;52.294;7.760;2023-03-30T00:12:49;98912.25;;;13.29;73.61
30021;BME280;16861;52.294;7.760;2023-03-30T00:15:18;98919.22;;;13.31;73.59
30021;BME280;16861;52.294;7.760;2023-03-30T00:17:45;98907.53;;;13.33;73.73
30021;BME280;16861;52.294;7.760;2023-03-30T00:20:13;98905.59;;;13.35;73.71
30021;BME280;16861;52.294;7.760;2023-03-30T00:22:40;98897.41;;;13.38;73.57
30021;BME280;16861;52.294;7.760;2023-03-30T00:25:10;98889.38;;;13.40;73.28
30021;BME280;16861;52.294;7.760;2023-03-30T00:27:38;98890.91;;;13.42;73.31
30021;BME280;16861;52.294;7.760;2023-03-30T00:30:08;98886.47;;;13.43;73.03
30021;BME280;16861;52.294;7.760;2023-03-30T00:32:35;98886.19;;;13.46;73.35
30021;BME280;16861;52.294;7.760;2023-03-30T00:35:02;98882.63;;;13.47;73.01
30021;BME280;16861;52.294;7.760;2023-03-30T00:37:31;98872.88;;;13.48;72.86
30021;BME280;16861;52.294;7.760;2023-03-30T00:39:57;98872.88;;;13.48;72.73
30021;BME280;16861;52.294;7.760;2023-03-30T00:42:24;98865.91;;;13.47;72.72
30021;BME280;16861;52.294;7.760;2023-03-30T00:47:57;98857.53;;;13.41;71.41
30021;BME280;16861;52.294;7.760;2023-03-30T00:50:29;98859.31;;;13.41;71.99
30021;BME280;16861;52.294;7.760;2023-03-30T00:53:04;98848.03;;;13.39;72.20
30021;BME280;16861;52.294;7.760;2023-03-30T00:55:32;98850.81;;;13.37;72.78
30021;BME280;16861;52.294;7.760;2023-03-30T00:58:01;98850.69;;;13.39;72.67
30021;BME280;16861;52.294;7.760;2023-03-30T01:00:27;98845.53;;;13.37;72.73
30021;BME280;16861;52.294;7.760;2023-03-30T01:02:56;98830.63;;;13.36;72.09
30021;BME280;16861;52.294;7.760;2023-03-30T01:05:25;98833.97;;;13.38;72.55
30021;BME280;16861;52.294;7.760;2023-03-30T01:07:53;98832.31;;;13.37;72.41
30021;BME280;16861;52.294;7.760;2023-03-30T01:10:23;98829.66;;;13.37;72.38
30021;BME280;16861;52.294;7.760;2023-03-30T01:12:49;98828.69;;;13.38;72.44
30021;BME280;16861;52.294;7.760;2023-03-30T01:15:16;98833.00;;;13.39;72.49
30021;BME280;16861;52.294;7.760;2023-03-30T01:23:31;98818.38;;;13.35;70.82
30021;BME280;16861;52.294;7.760;2023-03-30T01:32:02;98776.94;;;13.36;71.15
30021;BME280;16861;52.294;7.760;2023-03-30T01:37:52;98739.66;;;13.39;71.37
30021;BME280;16861;52.294;7.760;2023-03-30T01:40:42;98744.97;;;13.39;70.75
30021;BME280;16861;52.294;7.760;2023-03-30T01:43:15;98770.28;;;13.41;71.41
30021;BME280;16861;52.294;7.760;2023-03-30T01:45:48;98777.13;;;13.44;71.37
30021;BME280;16861;52.294;7.760;2023-03-30T01:50:59;98777.00;;;13.46;71.32
30021;BME280;16861;52.294;7.760;2023-03-30T01:53:32;98776.16;;;13.45;71.19
30021;BME280;16861;52.294;7.760;2023-03-30T01:56:02;98773.38;;;13.47;71.71
30021;BME280;16861;52.294;7.760;2023-03-30T01:58:38;98777.00;;;13.46;70.47
30021;BME280;16861;52.294;7.760;2023-03-30T02:01:10;98774.13;;;13.49;71.63
30021;BME280;16861;52.294;7.760;2023-03-30T02:03:40;98776.78;;;13.49;71.10
30021;BME280;16861;52.294;7.760;2023-03-30T02:06:20;98769.78;;;13.48;70.14
30021;BME280;16861;52.294;7.760;2023-03-30T02:08:50;98765.91;;;13.52;71.17
30021;BME280;16861;52.294;7.760;2023-03-30T02:11:17;98760.50;;;13.53;71.65
30021;BME280;16861;52.294;7.760;2023-03-30T02:13:47;98753.28;;;13.55;71.46
30021;BME280;16861;52.294;7.760;2023-03-30T02:16:23;98752.44;;;13.55;70.13
30021;BME280;16861;52.294;7.760;2023-03-30T02:18:51;98757.47;;;13.58;71.39
30021;BME280;16861;52.294;7.760;2023-03-30T02:21:19;98753.84;;;13.59;71.15
30021;BME280;16861;52.294;7.760;2023-03-30T02:23:47;98735.09;;;13.62;71.29
30021;BME280;16861;52.294;7.760;2023-03-30T02:26:17;98727.16;;;13.62;70.93
30021;BME280;16861;52.294;7.760;2023-03-30T02:28:43;98726.88;;;13.65;70.86
30021;BME280;16861;52.294;7.760;2023-03-30T02:31:14;98727.84;;;13.64;69.65
30021;BME280;16861;52.294;7.760;2023-03-30T02:34:03;98735.78;;;13.64;69.11
30021;BME280;16861;52.294;7.760;2023-03-30T02:39:32;98736.34;;;13.68;68.16
30021;BME280;16861;52.294;7.760;2023-03-30T02:42:33;98747.63;;;13.70;68.18
30021;BME280;16861;52.294;7.760;2023-03-30T02:48:03;98745.16;;;13.78;68.70
30021;BME280;16861;52.294;7.760;2023-03-30T02:56:00;98745.22;;;13.88;68.13
30021;BME280;16861;52.294;7.760;2023-03-30T02:58:52;98746.63;;;13.92;67.79
30021;BME280;16861;52.294;7.760;2023-03-30T03:01:34;98747.03;;;13.98;66.83
30021;BME280;16861;52.294;7.760;2023-03-30T03:04:02;98734.13;;;14.04;69.35
30021;BME280;16861;52.294;7.760;2023-03-30T03:06:30;98731.88;;;14.10;69.34
30021;BME280;16861;52.294;7.760;2023-03-30T03:08:59;98718.53;;;14.11;69.22
30021;BME280;16861;52.294;7.760;2023-03-30T03:11:25;98719.09;;;14.15;69.20
30021;BME280;16861;52.294;7.760;2023-03-30T03:13:52;98721.47;;;14.18;68.89
30021;BME280;16861;52.294;7.760;2023-03-30T03:16:18;98709.91;;;14.19;68.67
30021;BME280;16861;52.294;7.760;2023-03-30T03:18:46;98701.69;;;14.22;68.51
30021;BME280;16861;52.294;7.760;2023-03-30T03:21:14;98691.91;;;14.23;68.24
30021;BME280;16861;52.294;7.760;2023-03-30T03:23:41;98690.00;;;14.25;68.18
30021;BME280;16861;52.294;7.760;2023-03-30T03:26:08;98694.31;;;14.26;68.03
30021;BME280;16861;52.294;7.760;2023-03-30T03:28:35;98700.31;;;14.28;68.12
30021;BME280;16861;52.294;7.760;2023-03-30T03:31:04;98695.03;;;14.28;67.84
30021;BME280;16861;52.294;7.760;2023-03-30T03:33:46;98695.69;;;14.30;67.93
30021;BME280;16861;52.294;7.760;2023-03-30T03:36:54;98695.84;;;14.28;66.56
30021;BME280;16861;52.294;7.760;2023-03-30T03:39:23;98706.03;;;14.33;67.81
30021;BME280;16861;52.294;7.760;2023-03-30T03:41:54;98694.72;;;14.31;67.96
30021;BME280;16861;52.294;7.760;2023-03-30T03:44:27;98693.06;;;14.30;66.92
30021;BME280;16861;52.294;7.760;2023-03-30T03:47:37;98684.31;;;14.29;65.18
30021;BME280;16861;52.294;7.760;2023-03-30T03:50:39;98686.38;;;14.36;67.30
30021;BME280;16861;52.294;7.760;2023-03-30T03:53:25;98681.75;;;14.38;66.65
30021;BME280;16861;52.294;7.760;2023-03-30T03:56:10;98676.06;;;14.42;66.26
30021;BME280;16861;52.294;7.760;2023-03-30T03:58:42;98685.53;;;14.45;66.84
30021;BME280;16861;52.294;7.760;2023-03-30T04:01:21;98671.06;;;14.49;67.35
30021;BME280;16861;52.294;7.760;2023-03-30T04:03:56;98679.53;;;14.53;67.12
30021;BME280;16861;52.294;7.760;2023-03-30T04:06:30;98685.41;;;14.56;66.69
30021;BME280;16861;52.294;7.760;2023-03-30T04:08:59;98684.28;;;14.59;66.00
30021;BME280;16861;52.294;7.760;2023-03-30T04:11:31;98685.69;;;14.63;66.03
30021;BME280;16861;52.294;7.760;2023-03-30T04:14:05;98682.72;;;14.66;66.71
30021;BME280;16861;52.294;7.760;2023-03-30T04:16:31;98673.53;;;14.70;66.74
30021;BME280;16861;52.294;7.760;2023-03-30T04:18:59;98683.03;;;14.73;66.74
30021;BME280;16861;52.294;7.760;2023-03-30T04:21:25;98688.91;;;14.77;66.42
30021;BME280;16861;52.294;7.760;2023-03-30T04:23:55;98686.94;;;14.79;66.20
30021;BME280;16861;52.294;7.760;2023-03-30T04:26:21;98678.72;;;14.82;66.33
30021;BME280;16861;52.294;7.760;2023-03-30T04:28:48;98675.78;;;14.85;66.31
30021;BME280;16861;52.294;7.760;2023-03-30T04:31:21;98681.63;;;14.89;66.10
30021;BME280;16861;52.294;7.760;2023-03-30T04:33:57;98681.38;;;14.92;65.36
30021;BME280;16861;52.294;7.760;2023-03-30T04:36:28;98679.25;;;14.95;65.84
30021;BME280;16861;52.294;7.760;2023-03-30T04:39:19;98678.28;;;14.96;62.99
30021;BME280;16861;52.294;7.760;2023-03-30T04:42:11;98671.28;;;15.05;64.69
30021;BME280;16861;52.294;7.760;2023-03-30T04:45:36;98662.75;;;15.11;64.07
30021;BME280;16861;52.294;7.760;2023-03-30T04:48:11;98662.88;;;15.20;66.11
30021;BME280;16861;52.294;7.760;2023-03-30T04:50:45;98661.75;;;15.22;65.98
30021;BME280;16861;52.294;7.760;2023-03-30T04:54:03;98665.25;;;15.23;63.93
30021;BME280;16861;52.294;7.760;2023-03-30T04:56:36;98655.31;;;15.25;65.64
30021;BME280;16861;52.294;7.760;2023-03-30T04:59:06;98657.69;;;15.28;65.06
30021;BME280;16861;52.294;7.760;2023-03-30T05:01:43;98655.88;;;15.29;65.40
30021;BME280;16861;52.294;7.760;2023-03-30T05:12:04;98641.63;;;15.30;65.10
30021;BME280;16861;52.294;7.760;2023-03-30T05:14:30;98635.66;;;15.28;64.84
30021;BME280;16861;52.294;7.760;2023-03-30T05:16:57;98634.28;;;15.23;64.96
30021;BME280;16861;52.294;7.760;2023-03-30T05:19:24;98628.25;;;15.21;64.74
30021;BME280;16861;52.294;7.760;2023-03-30T05:21:51;98625.06;;;15.18;64.67
30021;BME280;16861;52.294;7.760;2023-03-30T05:24:17;98621.88;;;15.14;64.33
30021;BME280;16861;52.294;7.760;2023-03-30T05:26:44;98619.53;;;15.11;64.73
30021;BME280;16861;52.294;7.760;2023-03-30T05:29:10;98634.88;;;15.07;64.64
30021;BME280;16861;52.294;7.760;2023-03-30T05:31:37;98640.47;;;15.04;64.93
30021;BME280;16861;52.294;7.760;2023-03-30T05:34:04;98639.75;;;15.02;64.98
30021;BME280;16861;52.294;7.760;2023-03-30T05:36:31;98645.19;;;15.01;65.17
30021;BME280;16861;52.294;7.760;2023-03-30T05:39:01;98651.34;;;15.01;65.23
30021;BME280;16861;52.294;7.760;2023-03-30T05:41:30;98654.84;;;15.02;65.40
30021;BME280;16861;52.294;7.760;2023-03-30T05:43:57;98653.88;;;15.03;65.38
30021;BME280;16861;52.294;7.760;2023-03-30T05:46:23;98659.84;;;15.05;65.60
30021;BME280;16861;52.294;7.760;2023-03-30T05:48:50;98645.63;;;15.06;65.75
30021;BME280;16861;52.294;7.760;2023-03-30T05:51:16;98653.28;;;15.09;65.49
30021;BME280;16861;52.294;7.760;2023-03-30T05:53:43;98662.06;;;15.09;65.35
30021;BME280;16861;52.294;7.760;2023-03-30T05:56:10;98660.94;;;15.12;65.37
30021;BME280;16861;52.294;7.760;2023-03-30T05:58:37;98657.31;;;15.13;65.45
30021;BME280;16861;52.294;7.760;2023-03-30T06:01:04;98659.81;;;15.15;65.54
30021;BME280;16861;52.294;7.760;2023-03-30T06:03:31;98658.69;;;15.17;65.51
30021;BME280;16861;52.294;7.760;2023-03-30T06:05:58;98656.88;;;15.18;65.38
30021;BME280;16861;52.294;7.760;2023-03-30T06:08:25;98655.91;;;15.19;65.27
30021;BME280;16861;52.294;7.760;2023-03-30T06:10:55;98656.88;;;15.18;64.72
30021;BME280;16861;52.294;7.760;2023-03-30T06:13:22;98658.41;;;15.20;64.80
30021;BME280;16861;52.294;7.760;2023-03-30T06:15:49;98655.47;;;15.23;65.21
30021;BME280;16861;52.294;7.760;2023-03-30T06:18:16;98664.81;;;15.28;65.07
30021;BME280;16861;52.294;7.760;2023-03-30T06:20:46;98652.22;;;15.30;64.19
30021;BME280;16861;52.294;7.760;2023-03-30T06:23:13;98658.91;;;15.34;64.84
30021;BME280;16861;52.294;7.760;2023-03-30T06:25:40;98658.63;;;15.37;65.34
30021;BME280;16861;52.294;7.760;2023-03-30T06:28:07;98654.84;;;15.40;64.96
30021;BME280;16861;52.294;7.760;2023-03-30T06:30:33;98657.19;;;15.43;64.85
30021;BME280;16861;52.294;7.760;2023-03-30T06:33:00;98659.56;;;15.46;64.86
30021;BME280;16861;52.294;7.760;2023-03-30T06:35:26;98654.97;;;15.48;64.53
30021;BME280;16861;52.294;7.760;2023-03-30T06:37:54;98641.38;;;15.51;64.74
30021;BME280;16861;52.294;7.760;2023-03-30T06:40:21;98647.25;;;15.55;64.56
30021;BME280;16861;52.294;7.760;2023-03-30T06:42:47;98644.28;;;15.58;64.65
30021;BME280;16861;52.294;7.760;2023-03-30T06:45:14;98653.94;;;15.59;64.29
30021;BME280;16861;52.294;7.760;2023-03-30T06:47:41;98651.13;;;15.60;64.49
30021;BME280;16861;52.294;7.760;2023-03-30T06:50:08;98654.31;;;15.64;64.17
30021;BME280;16861;52.294;7.760;2023-03-30T06:52:36;98651.38;;;15.67;64.20
30021;BME280;16861;52.294;7.760;2023-03-30T06:55:04;98664.31;;;15.70;64.14
30021;BME280;16861;52.294;7.760;2023-03-30T06:57:30;98662.66;;;15.69;64.36
30021;BME280;16861;52.294;7.760;2023-03-30T06:59:57;98684.50;;;15.63;64.32
30021;BME280;16861;52.294;7.760;2023-03-30T07:02:24;98686.09;;;15.46;64.15
30021;BME280;16861;52.294;7.760;2023-03-30T07:04:51;98682.66;;;15.26;64.82
30021;BME280;16861;52.294;7.760;2023-03-30T07:07:18;98675.19;;;15.01;65.47
30021;BME280;16861;52.294;7.760;2023-03-30T07:09:45;98691.97;;;14.82;66.19
30021;BME280;16861;52.294;7.760;2023-03-30T07:12:11;98686.66;;;14.62;66.87
30021;BME280;16861;52.294;7.760;2023-03-30T07:14:38;98688.06;;;14.46;67.57
30021;BME280;16861;52.294;7.760;2023-03-30T07:17:04;98687.50;;;14.33;68.10
30021;BME280;16861;52.294;7.760;2023-03-30T07:19:33;98689.28;;;14.23;69.01
30021;BME280;16861;52.294;7.760;2023-03-30T07:21:59;98683.16;;;14.12;69.69
30021;BME280;16861;52.294;7.760;2023-03-30T07:24:26;98689.25;;;14.03;70.35
30021;BME280;16861;52.294;7.760;2023-03-30T07:26:55;98698.56;;;13.97;71.00
30021;BME280;16861;52.294;7.760;2023-03-30T07:29:21;98691.88;;;13.93;71.59
30021;BME280;16861;52.294;7.760;2023-03-30T07:31:48;98693.84;;;13.91;72.24
30021;BME280;16861;52.294;7.760;2023-03-30T07:34:15;98699.94;;;13.91;72.59
30021;BME280;16861;52.294;7.760;2023-03-30T07:36:42;98697.31;;;13.91;72.64
30021;BME280;16861;52.294;7.760;2023-03-30T07:39:08;98699.94;;;13.91;73.12
30021;BME280;16861;52.294;7.760;2023-03-30T07:41:36;98697.31;;;13.91;73.20
30021;BME280;16861;52.294;7.760;2023-03-30T07:44:03;98700.66;;;13.93;73.28
30021;BME280;16861;52.294;7.760;2023-03-30T07:46:29;98693.28;;;13.97;73.79
30021;BME280;16861;52.294;7.760;2023-03-30T07:48:56;98693.84;;;14.01;74.13
30021;BME280;16861;52.294;7.760;2023-03-30T07:51:23;98681.06;;;14.06;74.19
30021;BME280;16861;52.294;7.760;2023-03-30T07:53:53;98691.94;;;14.13;73.90
30021;BME280;16861;52.294;7.760;2023-03-30T07:56:19;98688.59;;;14.20;74.37
30021;BME280;16861;52.294;7.760;2023-03-30T07:58:46;98682.72;;;14.27;74.58
30021;BME280;16861;52.294;7.760;2023-03-30T08:01:12;98694.44;;;14.34;74.55
30021;BME280;16861;52.294;7.760;2023-03-30T08:03:39;98692.22;;;14.39;73.90
30021;BME280;16861;52.294;7.760;2023-03-30T08:06:06;98692.63;;;14.44;73.55
30021;BME280;16861;52.294;7.760;2023-03-30T08:08:33;98691.56;;;14.47;73.04
30021;BME280;16861;52.294;7.760;2023-03-30T08:11:00;98691.25;;;14.50;72.87
30021;BME280;16861;52.294;7.760;2023-03-30T08:13:27;98681.38;;;14.52;72.82
30021;BME280;16861;52.294;7.760;2023-03-30T08:15:54;98679.53;;;14.53;72.76
30021;BME280;16861;52.294;7.760;2023-03-30T08:18:21;98688.06;;;14.56;73.02
30021;BME280;16861;52.294;7.760;2023-03-30T08:20:52;98690.56;;;14.58;72.14
30021;BME280;16861;52.294;7.760;2023-03-30T08:23:19;98703.09;;;14.66;72.76
30021;BME280;16861;52.294;7.760;2023-03-30T08:25:46;98701.13;;;14.68;72.41
30021;BME280;16861;52.294;7.760;2023-03-30T08:28:18;98700.72;;;14.72;72.32
30021;BME280;16861;52.294;7.760;2023-03-30T08:30:45;98707.31;;;14.78;72.61
30021;BME280;16861;52.294;7.760;2023-03-30T08:33:12;98706.19;;;14.81;72.42
30021;BME280;16861;52.294;7.760;2023-03-30T08:35:43;98711.50;;;14.81;70.90
30021;BME280;16861;52.294;7.760;2023-03-30T08:38:10;98712.31;;;14.81;71.31
30021;BME280;16861;52.294;7.760;2023-03-30T08:40:39;98714.81;;;14.83;71.38
30021;BME280;16861;52.294;7.760;2023-03-30T08:43:29;98717.91;;;14.78;69.38
30021;BME280;16861;52.294;7.760;2023-03-30T08:46:00;98719.56;;;14.79;71.15
30021;BME280;16861;52.294;7.760;2023-03-30T08:48:30;98733.38;;;14.73;70.11
30021;BME280;16861;52.294;7.760;2023-03-30T08:51:00;98721.22;;;14.70;70.96
30021;BME280;16861;52.294;7.760;2023-03-30T08:53:32;98710.63;;;14.70;71.52
30021;BME280;16861;52.294;7.760;2023-03-30T09:01:17;98719.13;;;14.74;72.05
30021;BME280;16861;52.294;7.760;2023-03-30T09:06:50;98720.41;;;14.90;73.14
30021;BME280;16861;52.294;7.760;2023-03-30T09:09:18;98721.66;;;14.95;72.06
30021;BME280;16861;52.294;7.760;2023-03-30T09:11:56;98721.25;;;15.00;71.14
30021;BME280;16861;52.294;7.760;2023-03-30T09:14:33;98724.03;;;15.08;71.27
30021;BME280;16861;52.294;7.760;2023-03-30T09:17:14;98716.59;;;15.12;70.60
30021;BME280;16861;52.294;7.760;2023-03-30T09:19:50;98719.66;;;15.17;70.00
30021;BME280;16861;52.294;7.760;2023-03-30T09:22:19;98735.00;;;15.23;71.73
30021;BME280;16861;52.294;7.760;2023-03-30T09:24:45;98722.84;;;15.21;70.66
30021;BME280;16861;52.294;7.760;2023-03-30T09:27:18;98736.94;;;15.21;69.79
30021;BME280;16861;52.294;7.760;2023-03-30T09:29:52;98737.66;;;15.23;70.71
30021;BME280;16861;52.294;7.760;2023-03-30T09:34:58;98724.81;;;15.29;69.81
30021;BME280;16861;52.294;7.760;2023-03-30T09:37:27;98727.72;;;15.35;71.38
30021;BME280;16861;52.294;7.760;2023-03-30T09:39:53;98739.72;;;15.40;70.83
30021;BME280;16861;52.294;7.760;2023-03-30T09:42:38;98730.91;;;15.39;67.32
30021;BME280;16861;52.294;7.760;2023-03-30T09:45:24;98733.94;;;15.44;65.92
30021;BME280;16861;52.294;7.760;2023-03-30T09:47:53;98717.47;;;15.50;69.69
30021;BME280;16861;52.294;7.760;2023-03-30T09:50:25;98731.56;;;15.51;67.37
30021;BME280;16861;52.294;7.760;2023-03-30T09:53:01;98729.47;;;15.55;67.75
30021;BME280;16861;52.294;7.760;2023-03-30T09:55:30;98741.16;;;15.62;69.63
30021;BME280;16861;52.294;7.760;2023-03-30T09:58:13;98749.69;;;15.56;64.27
30021;BME280;16861;52.294;7.760;2023-03-30T10:00:43;98740.03;;;15.64;68.70
30021;BME280;16861;52.294;7.760;2023-03-30T10:03:19;98738.34;;;15.63;66.86
30021;BME280;16861;52.294;7.760;2023-03-30T10:05:59;98747.44;;;15.61;63.68
30021;BME280;16861;52.294;7.760;2023-03-30T10:08:28;98755.94;;;15.64;68.19
30021;BME280;16861;52.294;7.760;2023-03-30T10:10:56;98742.84;;;15.63;68.26
30021;BME280;16861;52.294;7.760;2023-03-30T10:13:30;98757.38;;;15.59;67.11
30021;BME280;16861;52.294;7.760;2023-03-30T10:16:03;98752.34;;;15.56;67.14
30021;BME280;16861;52.294;7.760;2023-03-30T10:18:43;98758.66;;;15.55;65.13
30021;BME280;16861;52.294;7.760;2023-03-30T10:23:42;98759.88;;;15.60;68.79
30021;BME280;16861;52.294;7.760;2023-03-30T10:26:17;98762.53;;;15.60;66.18
30021;BME280;16861;52.294;7.760;2023-03-30T10:29:16;98754.28;;;15.63;63.77
30021;BME280;16861;52.294;7.760;2023-03-30T10:31:45;98757.88;;;15.72;68.13
30021;BME280;16861;52.294;7.760;2023-03-30T10:34:16;98757.56;;;15.75;66.93
30021;BME280;16861;52.294;7.760;2023-03-30T10:36:46;98760.66;;;15.81;66.31
30021;BME280;16861;52.294;7.760;2023-03-30T10:39:22;98757.69;;;15.84;63.69
30021;BME280;16861;52.294;7.760;2023-03-30T10:41:49;98753.47;;;15.91;67.56
30021;BME280;16861;52.294;7.760;2023-03-30T10:44:39;98747.91;;;15.94;67.18
30021;BME280;16861;52.294;7.760;2023-03-30T10:52:38;98745.94;;;15.96;63.60
30021;BME280;16861;52.294;7.760;2023-03-30T10:55:56;98758.91;;;15.99;64.87
30021;BME280;16861;52.294;7.760;2023-03-30T11:01:07;98756.47;;;16.16;67.84
30021;BME280;16861;52.294;7.760;2023-03-30T11:03:37;98750.69;;;16.21;66.58
30021;BME280;16861;52.294;7.760;2023-03-30T11:06:15;98747.22;;;16.20;63.59
30021;BME280;16861;52.294;7.760;2023-03-30T11:08:46;98748.72;;;16.23;64.39
30021;BME280;16861;52.294;7.760;2023-03-30T11:11:22;98762.44;;;16.18;63.54
30021;BME280;16861;52.294;7.760;2023-03-30T11:13:59;98775.31;;;16.13;64.87
30021;BME280;16861;52.294;7.760;2023-03-30T11:16:40;98767.53;;;16.01;64.97
30021;BME280;16861;52.294;7.760;2023-03-30T11:19:19;98792.03;;;15.85;65.30
30021;BME280;16861;52.294;7.760;2023-03-30T11:21:51;98792.50;;;15.71;66.18
30021;BME280;16861;52.294;7.760;2023-03-30T11:24:23;98795.38;;;15.49;66.75
30021;BME280;16861;52.294;7.760;2023-03-30T11:29:56;98815.53;;;15.03;64.35
30021;BME280;16861;52.294;7.760;2023-03-30T11:32:31;98817.19;;;14.84;65.70
30021;BME280;16861;52.294;7.760;2023-03-30T11:35:26;98798.84;;;14.61;64.83
30021;BME280;16861;52.294;7.760;2023-03-30T11:38:17;98800.94;;;14.48;66.01
30021;BME280;16861;52.294;7.760;2023-03-30T11:40:49;98793.56;;;14.51;70.66
30021;BME280;16861;52.294;7.760;2023-03-30T11:43:19;98798.59;;;14.64;75.02
30021;BME280;16861;52.294;7.760;2023-03-30T11:56:49;98775.72;;;17.45;66.54
30021;BME280;16861;52.294;7.760;2023-03-30T11:59:30;98779.94;;;17.91;64.37
30021;BME280;16861;52.294;7.760;2023-03-30T12:07:52;98769.28;;;19.19;63.92
30021;BME280;16861;52.294;7.760;2023-03-30T12:12:56;98774.88;;;20.14;68.01
30021;BME280;16861;52.294;7.760;2023-03-30T12:15:47;98786.72;;;20.52;55.12
30021;BME280;16861;52.294;7.760;2023-03-30T12:18:38;98786.19;;;20.80;51.12
30021;BME280;16861;52.294;7.760;2023-03-30T12:21:30;98797.31;;;20.92;47.12
30021;BME280;16861;52.294;7.760;2023-03-30T12:26:48;98785.44;;;20.71;55.41
30021;BME280;16861;52.294;7.760;2023-03-30T12:32:29;98785.22;;;20.17;56.50
30021;BME280;16861;52.294;7.760;2023-03-30T12:34:57;98777.06;;;20.11;58.56
30021;BME280;16861;52.294;7.760;2023-03-30T12:37:34;98774.03;;;20.14;55.70
30021;BME280;16861;52.294;7.760;2023-03-30T12:40:06;98773.69;;;20.17;49.24
30021;BME280;16861;52.294;7.760;2023-03-30T12:42:51;98777.88;;;20.11;50.36
30021;BME280;16861;52.294;7.760;2023-03-30T12:45:24;98789.78;;;20.00;52.26
30021;BME280;16861;52.294;7.760;2023-03-30T13:04:31;98772.50;;;19.79;51.46
30021;BME280;16861;52.294;7.760;2023-03-30T13:07:12;98771.63;;;19.87;49.23
30021;BME280;16861;52.294;7.760;2023-03-30T13:09:58;98772.59;;;19.95;52.82
30021;BME280;16861;52.294;7.760;2023-03-30T13:12:28;98760.06;;;20.03;55.18
30021;BME280;16861;52.294;7.760;2023-03-30T13:20:34;98762.44;;;19.90;49.87
30021;BME280;16861;52.294;7.760;2023-03-30T13:23:04;98770.78;;;19.87;53.77
30021;BME280;16861;52.294;7.760;2023-03-30T13:25:51;98759.13;;;19.79;51.05
30021;BME280;16861;52.294;7.760;2023-03-30T13:28:35;98760.47;;;19.84;48.78
30021;BME280;16861;52.294;7.760;2023-03-30T13:42:37;98736.50;;;20.07;50.92
30021;BME280;16861;52.294;7.760;2023-03-30T13:45:20;98722.84;;;20.02;49.10
30021;BME280;16861;52.294;7.760;2023-03-30T13:47:59;98733.91;;;19.90;46.53
30021;BME280;16861;52.294;7.760;2023-03-30T13:50:31;98753.66;;;19.73;50.00
30021;BME280;16861;52.294;7.760;2023-03-30T13:53:03;98774.72;;;19.51;51.84
30021;BME280;16861;52.294;7.760;2023-03-30T13:55:37;98773.91;;;19.25;53.42
30021;BME280;16861;52.294;7.760;2023-03-30T13:58:17;98758.41;;;18.87;52.55
30021;BME280;16861;52.294;7.760;2023-03-30T14:00:48;98763.53;;;18.64;55.10
30021;BME280;16861;52.294;7.760;2023-03-30T14:06:05;98752.19;;;18.37;57.38
30021;BME280;16861;52.294;7.760;2023-03-30T14:08:37;98760.03;;;18.47;60.15
30021;BME280;16861;52.294;7.760;2023-03-30T14:11:12;98760.06;;;18.64;58.28
30021;BME280;16861;52.294;7.760;2023-03-30T14:13:42;98741.06;;;18.92;60.42
30021;BME280;16861;52.294;7.760;2023-03-30T14:16:21;98764.44;;;19.14;56.61
30021;BME280;16861;52.294;7.760;2023-03-30T14:18:49;98761.25;;;19.36;57.73
30021;BME280;16861;52.294;7.760;2023-03-30T14:21:18;98749.88;;;19.50;56.77
30021;BME280;16861;52.294;7.760;2023-03-30T14:23:56;98751.38;;;19.53;54.28
30021;BME280;16861;52.294;7.760;2023-03-30T14:26:27;98762.03;;;19.53;53.34
30021;BME280;16861;52.294;7.760;2023-03-30T14:28:59;98759.41;;;19.36;51.01
30021;BME280;16861;52.294;7.760;2023-03-30T14:31:37;98758.59;;;19.11;50.41
30021;BME280;16861;52.294;7.760;2023-03-30T14:34:27;98783.72;;;18.83;54.60
30021;BME280;16861;52.294;7.760;2023-03-30T14:37:02;98785.19;;;18.61;56.17
30021;BME280;16861;52.294;7.760;2023-03-30T14:39:31;98789.91;;;18.24;55.94
30021;BME280;16861;52.294;7.760;2023-03-30T14:42:06;98783.91;;;17.87;56.10
30021;BME280;16861;52.294;7.760;2023-03-30T14:44:37;98795.69;;;17.50;56.47
30021;BME280;16861;52.294;7.760;2023-03-30T14:47:04;98777.38;;;17.20;58.71
30021;BME280;16861;52.294;7.760;2023-03-30T14:49:31;98783.13;;;16.97;59.56
30021;BME280;16861;52.294;7.760;2023-03-30T14:52:07;98777.75;;;16.71;58.38
30021;BME280;16861;52.294;7.760;2023-03-30T14:54:35;98785.13;;;16.59;60.78
30021;BME280;16861;52.294;7.760;2023-03-30T14:57:04;98783.13;;;16.42;60.38
30021;BME280;16861;52.294;7.760;2023-03-30T14:59:34;98774.53;;;16.31;61.33
30021;BME280;16861;52.294;7.760;2023-03-30T15:02:05;98776.28;;;16.22;60.15
30021;BME280;16861;52.294;7.760;2023-03-30T15:04:42;98781.72;;;16.20;62.89
30021;BME280;16861;52.294;7.760;2023-03-30T15:07:12;98780.63;;;16.13;62.93
30021;BME280;16861;52.294;7.760;2023-03-30T15:09:42;98780.78;;;16.11;64.08
30021;BME280;16861;52.294;7.760;2023-03-30T15:12:38;98785.03;;;16.04;63.43
30021;BME280;16861;52.294;7.760;2023-03-30T15:15:07;98782.19;;;16.06;65.31
30021;BME280;16861;52.294;7.760;2023-03-30T15:17:35;98783.19;;;16.05;64.98
30021;BME280;16861;52.294;7.760;2023-03-30T15:20:05;98791.28;;;16.03;65.27
30021;BME280;16861;52.294;7.760;2023-03-30T15:22:38;98790.09;;;15.97;64.65
30021;BME280;16861;52.294;7.760;2023-03-30T15:25:11;98798.44;;;15.93;65.11
30021;BME280;16861;52.294;7.760;2023-03-30T15:27:41;98809.47;;;15.88;65.93
30021;BME280;16861;52.294;7.760;2023-03-30T15:30:21;98807.44;;;15.82;65.66
30021;BME280;16861;52.294;7.760;2023-03-30T15:35:26;98800.59;;;15.79;67.13